sensor_id;sensor_type;location;lat;lon;timestamp;P1;durP1;ratioP1;P2;durP2;ratioP2
50225;SDS011;36113;50.742;6.432;2022-07-29T00:00:18;2.90;;;1.60;;
50225;SDS011;36113;50.742;6.432;2022-07-29T00:02:43;3.60;;;2.10;;
50225;SDS011;36113;50.742;6.432;2022-07-29T00:05:09;3.60;;;1.70;;
50225;SDS011;36113;50.742;6.432;2022-07-29T00:07:35;4.70;;;1.97;;
50225;SDS011;36113;50.742;6.432;2022-07-29T00:10:00;2.63;;;1.80;;
50225;SDS011;36113;50.742;6.432;2022-07-29T00:12:25;2.53;;;1.80;;
50225;SDS011;36113;50.742;6.432;2022-07-29T00:14:51;2.17;;;1.80;;
50225;SDS011;36113;50.742;6.432;2022-07-29T00:19:43;8.18;;;2.63;;
50225;SDS011;36113;50.742;6.432;2022-07-29T00:22:08;4.03;;;2.43;;
50225;SDS011;36113;50.742;6.432;2022-07-29T00:24:33;3.67;;;1.80;;
50225;SDS011;36113;50.742;6.432;2022-07-29T00:26:59;3.93;;;2.27;;
50225;SDS011;36113;50.742;6.432;2022-07-29T00:29:24;6.90;;;2.30;;
50225;SDS011;36113;50.742;6.432;2022-07-29T00:31:50;4.43;;;1.60;;
50225;SDS011;36113;50.742;6.432;2022-07-29T00:34:15;4.10;;;2.33;;
50225;SDS011;36113;50.742;6.432;2022-07-29T00:36:59;8.55;;;2.30;;
50225;SDS011;36113;50.742;6.432;2022-07-29T00:39:25;6.50;;;1.77;;
50225;SDS011;36113;50.742;6.432;2022-07-29T00:41:50;3.83;;;2.10;;
50225;SDS011;36113;50.742;6.432;2022-07-29T00:44:15;4.97;;;2.53;;
50225;SDS011;36113;50.742;6.432;2022-07-29T00:46:41;4.83;;;2.17;;
50225;SDS011;36113;50.742;6.432;2022-07-29T00:49:06;4.13;;;2.50;;
50225;SDS011;36113;50.742;6.432;2022-07-29T00:51:32;7.10;;;2.27;;
50225;SDS011;36113;50.742;6.432;2022-07-29T00:54:00;3.08;;;2.38;;
50225;SDS011;36113;50.742;6.432;2022-07-29T00:56:26;4.07;;;2.33;;
50225;SDS011;36113;50.742;6.432;2022-07-29T00:58:51;4.07;;;2.43;;
50225;SDS011;36113;50.742;6.432;2022-07-29T01:01:18;7.30;;;2.40;;
50225;SDS011;36113;50.742;6.432;2022-07-29T01:03:43;4.23;;;2.33;;
50225;SDS011;36113;50.742;6.432;2022-07-29T01:06:09;4.87;;;2.00;;
50225;SDS011;36113;50.742;6.432;2022-07-29T01:08:34;4.20;;;2.20;;
50225;SDS011;36113;50.742;6.432;2022-07-29T01:11:00;2.92;;;1.80;;
50225;SDS011;36113;50.742;6.432;2022-07-29T01:13:27;2.17;;;1.70;;
50225;SDS011;36113;50.742;6.432;2022-07-29T01:15:56;6.10;;;1.80;;
50225;SDS011;36113;50.742;6.432;2022-07-29T01:18:30;6.68;;;1.80;;
50225;SDS011;36113;50.742;6.432;2022-07-29T01:31:31;1.63;;;1.50;;
50225;SDS011;36113;50.742;6.432;2022-07-29T01:34:05;5.07;;;1.90;;
50225;SDS011;36113;50.742;6.432;2022-07-29T01:36:35;2.45;;;1.45;;
50225;SDS011;36113;50.742;6.432;2022-07-29T01:39:05;3.70;;;1.77;;
50225;SDS011;36113;50.742;6.432;2022-07-29T01:41:34;2.63;;;1.60;;
50225;SDS011;36113;50.742;6.432;2022-07-29T01:44:46;1.92;;;1.70;;
50225;SDS011;36113;50.742;6.432;2022-07-29T01:46:56;4.70;;;2.10;;
50225;SDS011;36113;50.742;6.432;2022-07-29T01:49:27;1.92;;;1.58;;
50225;SDS011;36113;50.742;6.432;2022-07-29T01:51:57;5.07;;;1.90;;
50225;SDS011;36113;50.742;6.432;2022-07-29T01:54:35;2.83;;;2.03;;
50225;SDS011;36113;50.742;6.432;2022-07-29T01:57:08;2.83;;;1.80;;
50225;SDS011;36113;50.742;6.432;2022-07-29T01:59:36;3.10;;;2.05;;
50225;SDS011;36113;50.742;6.432;2022-07-29T02:02:02;8.63;;;2.17;;
50225;SDS011;36113;50.742;6.432;2022-07-29T02:04:28;6.85;;;2.17;;
50225;SDS011;36113;50.742;6.432;2022-07-29T02:07:02;3.38;;;1.95;;
50225;SDS011;36113;50.742;6.432;2022-07-29T02:09:30;2.75;;;2.00;;
50225;SDS011;36113;50.742;6.432;2022-07-29T02:11:58;5.57;;;1.98;;
50225;SDS011;36113;50.742;6.432;2022-07-29T02:14:26;4.47;;;1.67;;
50225;SDS011;36113;50.742;6.432;2022-07-29T02:16:54;5.68;;;2.03;;
50225;SDS011;36113;50.742;6.432;2022-07-29T02:19:21;3.45;;;1.90;;
50225;SDS011;36113;50.742;6.432;2022-07-29T02:21:51;10.98;;;2.15;;
50225;SDS011;36113;50.742;6.432;2022-07-29T02:24:18;3.40;;;1.95;;
50225;SDS011;36113;50.742;6.432;2022-07-29T02:26:45;6.72;;;1.77;;
50225;SDS011;36113;50.742;6.432;2022-07-29T02:29:14;5.78;;;1.75;;
50225;SDS011;36113;50.742;6.432;2022-07-29T02:31:41;4.28;;;1.73;;
50225;SDS011;36113;50.742;6.432;2022-07-29T02:34:09;2.97;;;1.90;;
50225;SDS011;36113;50.742;6.432;2022-07-29T02:36:36;7.15;;;2.13;;
50225;SDS011;36113;50.742;6.432;2022-07-29T02:39:02;5.38;;;1.83;;
50225;SDS011;36113;50.742;6.432;2022-07-29T02:41:30;5.97;;;1.92;;
50225;SDS011;36113;50.742;6.432;2022-07-29T02:44:03;3.92;;;2.08;;
50225;SDS011;36113;50.742;6.432;2022-07-29T02:46:32;3.88;;;1.90;;
50225;SDS011;36113;50.742;6.432;2022-07-29T02:49:17;4.25;;;2.15;;
50225;SDS011;36113;50.742;6.432;2022-07-29T02:51:53;10.68;;;2.10;;
50225;SDS011;36113;50.742;6.432;2022-07-29T02:54:25;9.90;;;1.98;;
50225;SDS011;36113;50.742;6.432;2022-07-29T02:56:56;7.22;;;2.03;;
50225;SDS011;36113;50.742;6.432;2022-07-29T02:59:28;3.78;;;1.40;;
50225;SDS011;36113;50.742;6.432;2022-07-29T03:01:57;7.32;;;1.90;;
50225;SDS011;36113;50.742;6.432;2022-07-29T03:04:25;10.10;;;2.22;;
50225;SDS011;36113;50.742;6.432;2022-07-29T03:06:53;2.65;;;2.00;;
50225;SDS011;36113;50.742;6.432;2022-07-29T03:09:19;4.90;;;1.98;;
50225;SDS011;36113;50.742;6.432;2022-07-29T03:11:46;4.13;;;1.90;;
50225;SDS011;36113;50.742;6.432;2022-07-29T03:14:12;5.07;;;1.63;;
50225;SDS011;36113;50.742;6.432;2022-07-29T03:16:38;4.33;;;1.93;;
50225;SDS011;36113;50.742;6.432;2022-07-29T03:19:04;7.03;;;1.80;;
50225;SDS011;36113;50.742;6.432;2022-07-29T03:21:30;5.07;;;2.33;;
50225;SDS011;36113;50.742;6.432;2022-07-29T03:23:56;3.28;;;1.67;;
50225;SDS011;36113;50.742;6.432;2022-07-29T03:26:21;6.20;;;1.73;;
50225;SDS011;36113;50.742;6.432;2022-07-29T03:28:47;7.50;;;2.27;;
50225;SDS011;36113;50.742;6.432;2022-07-29T03:31:12;4.23;;;2.13;;
50225;SDS011;36113;50.742;6.432;2022-07-29T03:33:37;4.20;;;1.83;;
50225;SDS011;36113;50.742;6.432;2022-07-29T03:36:03;2.80;;;1.87;;
50225;SDS011;36113;50.742;6.432;2022-07-29T03:38:29;5.63;;;1.87;;
50225;SDS011;36113;50.742;6.432;2022-07-29T03:40:57;5.75;;;1.75;;
50225;SDS011;36113;50.742;6.432;2022-07-29T03:43:26;5.32;;;2.00;;
50225;SDS011;36113;50.742;6.432;2022-07-29T03:45:57;5.25;;;2.05;;
50225;SDS011;36113;50.742;6.432;2022-07-29T03:48:25;3.60;;;1.60;;
50225;SDS011;36113;50.742;6.432;2022-07-29T03:50:51;3.30;;;2.20;;
50225;SDS011;36113;50.742;6.432;2022-07-29T03:53:17;7.77;;;2.30;;
50225;SDS011;36113;50.742;6.432;2022-07-29T03:55:45;4.50;;;2.37;;
50225;SDS011;36113;50.742;6.432;2022-07-29T03:58:13;9.93;;;2.20;;
50225;SDS011;36113;50.742;6.432;2022-07-29T04:00:40;5.63;;;2.15;;
50225;SDS011;36113;50.742;6.432;2022-07-29T04:03:06;6.22;;;1.95;;
50225;SDS011;36113;50.742;6.432;2022-07-29T04:05:33;2.75;;;2.10;;
50225;SDS011;36113;50.742;6.432;2022-07-29T04:07:58;7.40;;;2.40;;
50225;SDS011;36113;50.742;6.432;2022-07-29T04:10:24;4.77;;;1.97;;
50225;SDS011;36113;50.742;6.432;2022-07-29T04:12:49;7.00;;;2.40;;
50225;SDS011;36113;50.742;6.432;2022-07-29T04:15:15;8.10;;;2.23;;
50225;SDS011;36113;50.742;6.432;2022-07-29T04:17:40;2.80;;;1.90;;
50225;SDS011;36113;50.742;6.432;2022-07-29T04:20:06;6.77;;;2.10;;
50225;SDS011;36113;50.742;6.432;2022-07-29T04:22:31;9.67;;;2.33;;
50225;SDS011;36113;50.742;6.432;2022-07-29T04:24:57;10.35;;;2.30;;
50225;SDS011;36113;50.742;6.432;2022-07-29T04:27:22;3.57;;;1.90;;
50225;SDS011;36113;50.742;6.432;2022-07-29T04:29:47;4.60;;;2.37;;
50225;SDS011;36113;50.742;6.432;2022-07-29T04:32:13;2.10;;;1.90;;
50225;SDS011;36113;50.742;6.432;2022-07-29T04:34:39;5.43;;;2.10;;
50225;SDS011;36113;50.742;6.432;2022-07-29T04:37:04;2.63;;;1.63;;
50225;SDS011;36113;50.742;6.432;2022-07-29T04:39:29;3.53;;;2.10;;
50225;SDS011;36113;50.742;6.432;2022-07-29T04:41:55;1.70;;;1.60;;
50225;SDS011;36113;50.742;6.432;2022-07-29T04:44:20;4.73;;;1.80;;
50225;SDS011;36113;50.742;6.432;2022-07-29T04:46:46;3.45;;;2.17;;
50225;SDS011;36113;50.742;6.432;2022-07-29T04:49:12;8.60;;;2.13;;
50225;SDS011;36113;50.742;6.432;2022-07-29T04:51:38;9.53;;;2.13;;
50225;SDS011;36113;50.742;6.432;2022-07-29T04:54:03;7.73;;;2.13;;
50225;SDS011;36113;50.742;6.432;2022-07-29T04:56:28;6.40;;;2.03;;
50225;SDS011;36113;50.742;6.432;2022-07-29T04:58:54;4.80;;;2.20;;
50225;SDS011;36113;50.742;6.432;2022-07-29T05:01:19;5.70;;;2.63;;
50225;SDS011;36113;50.742;6.432;2022-07-29T05:03:44;3.53;;;2.07;;
50225;SDS011;36113;50.742;6.432;2022-07-29T05:06:10;8.63;;;2.10;;
50225;SDS011;36113;50.742;6.432;2022-07-29T05:08:36;2.50;;;2.00;;
50225;SDS011;36113;50.742;6.432;2022-07-29T05:11:02;3.23;;;2.00;;
50225;SDS011;36113;50.742;6.432;2022-07-29T05:13:28;6.20;;;2.10;;
50225;SDS011;36113;50.742;6.432;2022-07-29T05:15:53;7.20;;;2.90;;
50225;SDS011;36113;50.742;6.432;2022-07-29T05:18:19;3.93;;;2.50;;
50225;SDS011;36113;50.742;6.432;2022-07-29T05:20:44;6.97;;;2.83;;
50225;SDS011;36113;50.742;6.432;2022-07-29T05:23:10;7.17;;;2.50;;
50225;SDS011;36113;50.742;6.432;2022-07-29T05:25:37;4.03;;;2.13;;
50225;SDS011;36113;50.742;6.432;2022-07-29T05:28:03;2.33;;;2.13;;
50225;SDS011;36113;50.742;6.432;2022-07-29T05:30:28;2.70;;;2.30;;
50225;SDS011;36113;50.742;6.432;2022-07-29T05:32:54;4.83;;;2.73;;
50225;SDS011;36113;50.742;6.432;2022-07-29T05:35:19;3.57;;;2.77;;
50225;SDS011;36113;50.742;6.432;2022-07-29T05:37:44;3.27;;;2.73;;
50225;SDS011;36113;50.742;6.432;2022-07-29T05:40:10;6.07;;;2.77;;
50225;SDS011;36113;50.742;6.432;2022-07-29T05:42:35;9.03;;;2.67;;
50225;SDS011;36113;50.742;6.432;2022-07-29T05:45:01;4.33;;;3.07;;
50225;SDS011;36113;50.742;6.432;2022-07-29T05:47:26;4.63;;;2.80;;
50225;SDS011;36113;50.742;6.432;2022-07-29T05:49:52;3.50;;;2.70;;
50225;SDS011;36113;50.742;6.432;2022-07-29T05:52:17;3.30;;;2.53;;
50225;SDS011;36113;50.742;6.432;2022-07-29T05:54:43;9.13;;;3.20;;
50225;SDS011;36113;50.742;6.432;2022-07-29T05:57:14;8.90;;;3.10;;
50225;SDS011;36113;50.742;6.432;2022-07-29T05:59:41;5.57;;;2.53;;
50225;SDS011;36113;50.742;6.432;2022-07-29T06:02:07;7.80;;;2.47;;
50225;SDS011;36113;50.742;6.432;2022-07-29T06:04:32;5.33;;;2.47;;
50225;SDS011;36113;50.742;6.432;2022-07-29T06:06:58;6.73;;;2.70;;
50225;SDS011;36113;50.742;6.432;2022-07-29T06:09:24;4.80;;;3.10;;
50225;SDS011;36113;50.742;6.432;2022-07-29T06:11:49;7.00;;;2.90;;
50225;SDS011;36113;50.742;6.432;2022-07-29T06:14:14;6.20;;;3.30;;
50225;SDS011;36113;50.742;6.432;2022-07-29T06:16:40;6.23;;;2.67;;
50225;SDS011;36113;50.742;6.432;2022-07-29T06:19:05;4.97;;;2.67;;
50225;SDS011;36113;50.742;6.432;2022-07-29T06:21:31;4.20;;;2.60;;
50225;SDS011;36113;50.742;6.432;2022-07-29T06:23:56;3.30;;;2.90;;
50225;SDS011;36113;50.742;6.432;2022-07-29T06:26:22;3.77;;;2.50;;
50225;SDS011;36113;50.742;6.432;2022-07-29T06:28:47;4.33;;;2.77;;
50225;SDS011;36113;50.742;6.432;2022-07-29T06:31:13;3.20;;;2.57;;
50225;SDS011;36113;50.742;6.432;2022-07-29T06:33:38;4.73;;;2.60;;
50225;SDS011;36113;50.742;6.432;2022-07-29T06:36:04;4.80;;;2.67;;
50225;SDS011;36113;50.742;6.432;2022-07-29T06:38:30;5.15;;;3.28;;
50225;SDS011;36113;50.742;6.432;2022-07-29T06:40:56;4.83;;;2.70;;
50225;SDS011;36113;50.742;6.432;2022-07-29T06:43:32;5.43;;;3.75;;
50225;SDS011;36113;50.742;6.432;2022-07-29T06:46:02;6.32;;;3.55;;
50225;SDS011;36113;50.742;6.432;2022-07-29T06:48:30;6.10;;;3.63;;
50225;SDS011;36113;50.742;6.432;2022-07-29T06:50:56;5.03;;;2.90;;
50225;SDS011;36113;50.742;6.432;2022-07-29T06:53:21;6.43;;;3.47;;
50225;SDS011;36113;50.742;6.432;2022-07-29T06:55:47;9.33;;;3.23;;
50225;SDS011;36113;50.742;6.432;2022-07-29T06:58:12;7.43;;;3.77;;
50225;SDS011;36113;50.742;6.432;2022-07-29T07:00:44;4.00;;;3.15;;
50225;SDS011;36113;50.742;6.432;2022-07-29T07:03:10;5.28;;;3.30;;
50225;SDS011;36113;50.742;6.432;2022-07-29T07:05:35;8.87;;;3.40;;
50225;SDS011;36113;50.742;6.432;2022-07-29T07:08:01;6.97;;;3.53;;
50225;SDS011;36113;50.742;6.432;2022-07-29T07:10:26;4.00;;;3.70;;
50225;SDS011;36113;50.742;6.432;2022-07-29T07:12:52;6.67;;;3.90;;
50225;SDS011;36113;50.742;6.432;2022-07-29T07:15:17;5.23;;;3.20;;
50225;SDS011;36113;50.742;6.432;2022-07-29T07:17:46;7.53;;;3.55;;
50225;SDS011;36113;50.742;6.432;2022-07-29T07:20:13;7.63;;;3.40;;
50225;SDS011;36113;50.742;6.432;2022-07-29T07:22:38;6.17;;;3.47;;
50225;SDS011;36113;50.742;6.432;2022-07-29T07:25:04;6.40;;;3.33;;
50225;SDS011;36113;50.742;6.432;2022-07-29T07:27:30;6.07;;;3.63;;
50225;SDS011;36113;50.742;6.432;2022-07-29T07:29:55;9.67;;;3.87;;
50225;SDS011;36113;50.742;6.432;2022-07-29T07:32:20;4.17;;;3.33;;
50225;SDS011;36113;50.742;6.432;2022-07-29T07:34:46;10.83;;;3.47;;
50225;SDS011;36113;50.742;6.432;2022-07-29T07:37:11;3.53;;;3.20;;
50225;SDS011;36113;50.742;6.432;2022-07-29T07:39:36;5.70;;;3.30;;
50225;SDS011;36113;50.742;6.432;2022-07-29T07:42:02;6.83;;;3.43;;
50225;SDS011;36113;50.742;6.432;2022-07-29T07:44:27;2.93;;;2.73;;
50225;SDS011;36113;50.742;6.432;2022-07-29T07:46:53;4.33;;;2.83;;
50225;SDS011;36113;50.742;6.432;2022-07-29T07:49:18;5.10;;;3.50;;
50225;SDS011;36113;50.742;6.432;2022-07-29T07:51:43;5.60;;;3.60;;
50225;SDS011;36113;50.742;6.432;2022-07-29T07:54:09;4.80;;;3.03;;
50225;SDS011;36113;50.742;6.432;2022-07-29T07:56:34;4.00;;;3.03;;
50225;SDS011;36113;50.742;6.432;2022-07-29T07:58:59;3.50;;;2.73;;
50225;SDS011;36113;50.742;6.432;2022-07-29T08:01:25;8.43;;;3.17;;
50225;SDS011;36113;50.742;6.432;2022-07-29T08:03:50;5.73;;;2.67;;
50225;SDS011;36113;50.742;6.432;2022-07-29T08:06:15;5.43;;;2.97;;
50225;SDS011;36113;50.742;6.432;2022-07-29T08:08:41;8.80;;;3.37;;
50225;SDS011;36113;50.742;6.432;2022-07-29T08:11:06;6.27;;;3.40;;
50225;SDS011;36113;50.742;6.432;2022-07-29T08:13:32;6.83;;;2.77;;
50225;SDS011;36113;50.742;6.432;2022-07-29T08:15:57;3.73;;;3.43;;
50225;SDS011;36113;50.742;6.432;2022-07-29T08:18:29;5.55;;;3.38;;
50225;SDS011;36113;50.742;6.432;2022-07-29T08:20:55;6.05;;;3.20;;
50225;SDS011;36113;50.742;6.432;2022-07-29T08:23:21;3.23;;;2.83;;
50225;SDS011;36113;50.742;6.432;2022-07-29T08:25:48;8.13;;;3.20;;
50225;SDS011;36113;50.742;6.432;2022-07-29T08:28:13;7.23;;;2.67;;
50225;SDS011;36113;50.742;6.432;2022-07-29T08:30:39;3.23;;;2.60;;
50225;SDS011;36113;50.742;6.432;2022-07-29T08:33:05;10.07;;;3.17;;
50225;SDS011;36113;50.742;6.432;2022-07-29T08:35:30;2.90;;;2.60;;
50225;SDS011;36113;50.742;6.432;2022-07-29T08:37:55;3.53;;;2.83;;
50225;SDS011;36113;50.742;6.432;2022-07-29T08:40:21;2.87;;;2.07;;
50225;SDS011;36113;50.742;6.432;2022-07-29T08:42:48;5.43;;;2.55;;
50225;SDS011;36113;50.742;6.432;2022-07-29T08:47:40;3.75;;;2.00;;
50225;SDS011;36113;50.742;6.432;2022-07-29T08:50:06;3.73;;;2.30;;
50225;SDS011;36113;50.742;6.432;2022-07-29T08:52:33;7.25;;;2.42;;
50225;SDS011;36113;50.742;6.432;2022-07-29T08:55:01;3.25;;;1.90;;
50225;SDS011;36113;50.742;6.432;2022-07-29T08:57:27;9.57;;;2.60;;
50225;SDS011;36113;50.742;6.432;2022-07-29T09:02:20;5.30;;;2.10;;
50225;SDS011;36113;50.742;6.432;2022-07-29T09:04:47;5.45;;;2.38;;
50225;SDS011;36113;50.742;6.432;2022-07-29T09:07:16;6.10;;;2.20;;
50225;SDS011;36113;50.742;6.432;2022-07-29T09:09:43;5.25;;;2.30;;
50225;SDS011;36113;50.742;6.432;2022-07-29T09:12:09;6.60;;;2.43;;
50225;SDS011;36113;50.742;6.432;2022-07-29T09:14:36;6.72;;;2.00;;
50225;SDS011;36113;50.742;6.432;2022-07-29T09:17:02;3.50;;;2.45;;
50225;SDS011;36113;50.742;6.432;2022-07-29T09:19:29;4.53;;;3.00;;
50225;SDS011;36113;50.742;6.432;2022-07-29T09:21:57;9.57;;;2.38;;
50225;SDS011;36113;50.742;6.432;2022-07-29T09:24:25;4.35;;;1.88;;
50225;SDS011;36113;50.742;6.432;2022-07-29T09:27:00;5.03;;;2.03;;
50225;SDS011;36113;50.742;6.432;2022-07-29T09:29:25;3.20;;;2.30;;
50225;SDS011;36113;50.742;6.432;2022-07-29T09:31:52;5.00;;;1.95;;
50225;SDS011;36113;50.742;6.432;2022-07-29T09:34:23;6.82;;;2.47;;
50225;SDS011;36113;50.742;6.432;2022-07-29T09:36:50;3.47;;;2.20;;
50225;SDS011;36113;50.742;6.432;2022-07-29T09:39:26;5.05;;;2.70;;
50225;SDS011;36113;50.742;6.432;2022-07-29T09:41:53;11.77;;;2.42;;
50225;SDS011;36113;50.742;6.432;2022-07-29T09:44:20;7.30;;;2.92;;
50225;SDS011;36113;50.742;6.432;2022-07-29T09:47:02;9.15;;;2.80;;
50225;SDS011;36113;50.742;6.432;2022-07-29T09:49:32;3.88;;;2.30;;
50225;SDS011;36113;50.742;6.432;2022-07-29T09:54:31;10.55;;;2.80;;
50225;SDS011;36113;50.742;6.432;2022-07-29T09:57:02;3.63;;;2.03;;
50225;SDS011;36113;50.742;6.432;2022-07-29T09:59:28;5.28;;;2.47;;
50225;SDS011;36113;50.742;6.432;2022-07-29T10:01:54;5.97;;;2.13;;
50225;SDS011;36113;50.742;6.432;2022-07-29T10:04:20;4.15;;;2.63;;
50225;SDS011;36113;50.742;6.432;2022-07-29T10:06:58;8.00;;;2.40;;
50225;SDS011;36113;50.742;6.432;2022-07-29T10:09:25;5.45;;;2.47;;
50225;SDS011;36113;50.742;6.432;2022-07-29T10:14:36;7.97;;;2.47;;
50225;SDS011;36113;50.742;6.432;2022-07-29T10:19:29;7.15;;;3.17;;
50225;SDS011;36113;50.742;6.432;2022-07-29T10:21:57;3.67;;;2.72;;
50225;SDS011;36113;50.742;6.432;2022-07-29T10:24:24;4.30;;;3.25;;
50225;SDS011;36113;50.742;6.432;2022-07-29T10:26:51;8.75;;;4.40;;
50225;SDS011;36113;50.742;6.432;2022-07-29T10:29:18;9.50;;;3.95;;
50225;SDS011;36113;50.742;6.432;2022-07-29T10:31:52;5.47;;;3.03;;
50225;SDS011;36113;50.742;6.432;2022-07-29T10:37:26;3.75;;;3.38;;
50225;SDS011;36113;50.742;6.432;2022-07-29T10:43:16;7.75;;;3.63;;
50225;SDS011;36113;50.742;6.432;2022-07-29T10:45:45;3.10;;;2.60;;
50225;SDS011;36113;50.742;6.432;2022-07-29T10:48:13;6.07;;;3.13;;
50225;SDS011;36113;50.742;6.432;2022-07-29T10:50:51;3.90;;;2.97;;
50225;SDS011;36113;50.742;6.432;2022-07-29T10:53:19;9.10;;;2.65;;
50225;SDS011;36113;50.742;6.432;2022-07-29T10:55:45;3.60;;;2.77;;
50225;SDS011;36113;50.742;6.432;2022-07-29T10:58:19;4.85;;;2.40;;
50225;SDS011;36113;50.742;6.432;2022-07-29T11:00:48;5.72;;;2.75;;
50225;SDS011;36113;50.742;6.432;2022-07-29T11:06:07;8.68;;;2.70;;
50225;SDS011;36113;50.742;6.432;2022-07-29T11:08:32;4.83;;;2.70;;
50225;SDS011;36113;50.742;6.432;2022-07-29T11:13:49;9.20;;;3.37;;
50225;SDS011;36113;50.742;6.432;2022-07-29T11:16:17;4.13;;;3.42;;
50225;SDS011;36113;50.742;6.432;2022-07-29T11:19:18;3.05;;;2.75;;
50225;SDS011;36113;50.742;6.432;2022-07-29T11:21:44;3.50;;;2.97;;
50225;SDS011;36113;50.742;6.432;2022-07-29T11:24:15;6.35;;;4.00;;
50225;SDS011;36113;50.742;6.432;2022-07-29T11:29:19;4.18;;;3.88;;
50225;SDS011;36113;50.742;6.432;2022-07-29T11:31:50;9.50;;;4.25;;
50225;SDS011;36113;50.742;6.432;2022-07-29T11:34:26;6.95;;;3.67;;
50225;SDS011;36113;50.742;6.432;2022-07-29T11:39:31;5.90;;;3.53;;
50225;SDS011;36113;50.742;6.432;2022-07-29T11:44:53;6.20;;;3.75;;
50225;SDS011;36113;50.742;6.432;2022-07-29T11:47:23;8.10;;;3.83;;
50225;SDS011;36113;50.742;6.432;2022-07-29T11:52:16;10.27;;;4.57;;
50225;SDS011;36113;50.742;6.432;2022-07-29T11:54:42;7.13;;;4.35;;
50225;SDS011;36113;50.742;6.432;2022-07-29T11:57:08;6.85;;;3.92;;
50225;SDS011;36113;50.742;6.432;2022-07-29T11:59:40;6.32;;;4.80;;
50225;SDS011;36113;50.742;6.432;2022-07-29T12:02:09;5.10;;;4.60;;
50225;SDS011;36113;50.742;6.432;2022-07-29T12:04:56;7.22;;;4.80;;
50225;SDS011;36113;50.742;6.432;2022-07-29T12:07:31;5.50;;;4.27;;
50225;SDS011;36113;50.742;6.432;2022-07-29T12:09:57;4.40;;;3.90;;
50225;SDS011;36113;50.742;6.432;2022-07-29T12:12:23;7.57;;;5.00;;
50225;SDS011;36113;50.742;6.432;2022-07-29T12:14:49;4.97;;;4.40;;
50225;SDS011;36113;50.742;6.432;2022-07-29T12:17:27;5.50;;;5.00;;
50225;SDS011;36113;50.742;6.432;2022-07-29T12:19:54;5.47;;;4.10;;
50225;SDS011;36113;50.742;6.432;2022-07-29T12:22:29;5.90;;;3.72;;
50225;SDS011;36113;50.742;6.432;2022-07-29T12:25:03;7.10;;;4.32;;
50225;SDS011;36113;50.742;6.432;2022-07-29T12:30:00;8.32;;;4.75;;
50225;SDS011;36113;50.742;6.432;2022-07-29T12:32:33;6.47;;;3.90;;
50225;SDS011;36113;50.742;6.432;2022-07-29T12:35:03;7.57;;;3.58;;
50225;SDS011;36113;50.742;6.432;2022-07-29T12:37:32;4.97;;;4.50;;
50225;SDS011;36113;50.742;6.432;2022-07-29T12:39:57;7.68;;;4.63;;
50225;SDS011;36113;50.742;6.432;2022-07-29T12:42:23;6.90;;;4.70;;
50225;SDS011;36113;50.742;6.432;2022-07-29T12:44:49;6.97;;;5.30;;
50225;SDS011;36113;50.742;6.432;2022-07-29T12:49:41;7.85;;;3.88;;
50225;SDS011;36113;50.742;6.432;2022-07-29T12:52:26;8.87;;;4.33;;
50225;SDS011;36113;50.742;6.432;2022-07-29T12:54:53;6.00;;;3.60;;
50225;SDS011;36113;50.742;6.432;2022-07-29T12:57:18;6.53;;;3.93;;
50225;SDS011;36113;50.742;6.432;2022-07-29T12:59:44;6.87;;;3.80;;
50225;SDS011;36113;50.742;6.432;2022-07-29T13:02:21;8.57;;;3.10;;
50225;SDS011;36113;50.742;6.432;2022-07-29T13:04:57;5.22;;;2.88;;
50225;SDS011;36113;50.742;6.432;2022-07-29T13:07:24;3.70;;;2.92;;
50225;SDS011;36113;50.742;6.432;2022-07-29T13:09:52;7.72;;;3.60;;
50225;SDS011;36113;50.742;6.432;2022-07-29T13:12:17;5.88;;;3.13;;
50225;SDS011;36113;50.742;6.432;2022-07-29T13:14:44;8.90;;;3.60;;
50225;SDS011;36113;50.742;6.432;2022-07-29T13:17:14;6.75;;;3.35;;
50225;SDS011;36113;50.742;6.432;2022-07-29T13:19:45;8.02;;;2.75;;
50225;SDS011;36113;50.742;6.432;2022-07-29T13:22:16;4.78;;;2.60;;
50225;SDS011;36113;50.742;6.432;2022-07-29T13:27:13;3.95;;;3.25;;
50225;SDS011;36113;50.742;6.432;2022-07-29T13:29:39;5.32;;;2.75;;
50225;SDS011;36113;50.742;6.432;2022-07-29T13:32:05;3.67;;;2.30;;
50225;SDS011;36113;50.742;6.432;2022-07-29T13:34:30;4.73;;;3.43;;
50225;SDS011;36113;50.742;6.432;2022-07-29T13:36:56;5.00;;;2.83;;
50225;SDS011;36113;50.742;6.432;2022-07-29T13:39:21;7.13;;;2.97;;
50225;SDS011;36113;50.742;6.432;2022-07-29T13:41:47;3.73;;;2.73;;
50225;SDS011;36113;50.742;6.432;2022-07-29T13:44:12;3.30;;;2.77;;
50225;SDS011;36113;50.742;6.432;2022-07-29T13:46:37;4.40;;;3.13;;
50225;SDS011;36113;50.742;6.432;2022-07-29T13:49:03;4.67;;;2.60;;
50225;SDS011;36113;50.742;6.432;2022-07-29T13:51:28;3.77;;;2.80;;
50225;SDS011;36113;50.742;6.432;2022-07-29T13:53:53;9.83;;;3.13;;
50225;SDS011;36113;50.742;6.432;2022-07-29T13:56:19;5.70;;;2.93;;
50225;SDS011;36113;50.742;6.432;2022-07-29T13:58:44;10.70;;;3.33;;
50225;SDS011;36113;50.742;6.432;2022-07-29T14:01:09;4.50;;;2.67;;
50225;SDS011;36113;50.742;6.432;2022-07-29T14:03:34;8.90;;;3.50;;
50225;SDS011;36113;50.742;6.432;2022-07-29T14:06:03;6.00;;;3.22;;
50225;SDS011;36113;50.742;6.432;2022-07-29T14:08:28;6.93;;;3.00;;
50225;SDS011;36113;50.742;6.432;2022-07-29T14:10:54;5.30;;;3.73;;
50225;SDS011;36113;50.742;6.432;2022-07-29T14:13:19;6.70;;;3.20;;
50225;SDS011;36113;50.742;6.432;2022-07-29T14:15:44;4.57;;;2.83;;
50225;SDS011;36113;50.742;6.432;2022-07-29T14:18:10;6.80;;;2.77;;
50225;SDS011;36113;50.742;6.432;2022-07-29T14:20:35;9.87;;;3.27;;
50225;SDS011;36113;50.742;6.432;2022-07-29T14:23:01;3.15;;;2.42;;
50225;SDS011;36113;50.742;6.432;2022-07-29T14:25:26;5.70;;;2.60;;
50225;SDS011;36113;50.742;6.432;2022-07-29T14:27:51;3.20;;;2.90;;
50225;SDS011;36113;50.742;6.432;2022-07-29T14:30:18;8.07;;;3.40;;
50225;SDS011;36113;50.742;6.432;2022-07-29T14:32:43;5.60;;;3.13;;
50225;SDS011;36113;50.742;6.432;2022-07-29T14:35:08;4.23;;;2.20;;
50225;SDS011;36113;50.742;6.432;2022-07-29T14:37:34;5.73;;;2.97;;
50225;SDS011;36113;50.742;6.432;2022-07-29T14:40:00;5.43;;;3.22;;
50225;SDS011;36113;50.742;6.432;2022-07-29T14:42:28;2.83;;;2.63;;
50225;SDS011;36113;50.742;6.432;2022-07-29T14:44:54;6.90;;;2.83;;
50225;SDS011;36113;50.742;6.432;2022-07-29T14:47:19;7.23;;;2.97;;
50225;SDS011;36113;50.742;6.432;2022-07-29T14:49:44;4.07;;;2.50;;
50225;SDS011;36113;50.742;6.432;2022-07-29T14:52:09;3.37;;;2.43;;
50225;SDS011;36113;50.742;6.432;2022-07-29T14:54:35;2.80;;;2.43;;
50225;SDS011;36113;50.742;6.432;2022-07-29T14:57:00;9.87;;;2.53;;
50225;SDS011;36113;50.742;6.432;2022-07-29T14:59:25;2.93;;;2.30;;
50225;SDS011;36113;50.742;6.432;2022-07-29T15:01:51;4.37;;;2.27;;
50225;SDS011;36113;50.742;6.432;2022-07-29T15:04:17;5.93;;;2.83;;
50225;SDS011;36113;50.742;6.432;2022-07-29T15:06:42;3.90;;;2.20;;
50225;SDS011;36113;50.742;6.432;2022-07-29T15:09:08;2.40;;;2.20;;
50225;SDS011;36113;50.742;6.432;2022-07-29T15:11:33;7.90;;;2.30;;
50225;SDS011;36113;50.742;6.432;2022-07-29T15:13:58;2.13;;;1.80;;
50225;SDS011;36113;50.742;6.432;2022-07-29T15:16:24;2.47;;;2.13;;
50225;SDS011;36113;50.742;6.432;2022-07-29T15:18:49;2.57;;;2.10;;
50225;SDS011;36113;50.742;6.432;2022-07-29T15:21:15;3.63;;;1.83;;
50225;SDS011;36113;50.742;6.432;2022-07-29T15:23:40;2.70;;;2.10;;
50225;SDS011;36113;50.742;6.432;2022-07-29T15:26:05;4.20;;;2.27;;
50225;SDS011;36113;50.742;6.432;2022-07-29T15:28:31;3.13;;;2.13;;
50225;SDS011;36113;50.742;6.432;2022-07-29T15:30:56;2.73;;;2.47;;
50225;SDS011;36113;50.742;6.432;2022-07-29T15:33:22;2.10;;;2.00;;
50225;SDS011;36113;50.742;6.432;2022-07-29T15:35:47;2.37;;;2.27;;
50225;SDS011;36113;50.742;6.432;2022-07-29T15:38:12;3.33;;;2.17;;
50225;SDS011;36113;50.742;6.432;2022-07-29T15:40:38;2.23;;;1.90;;
50225;SDS011;36113;50.742;6.432;2022-07-29T15:43:06;2.22;;;2.03;;